Terminal Aerodrome Forecast
Issued by NWS Wilmington, OH

Current Version | Previous Version | Graphics & Text | Print | Product List | Glossary On
Versions: 1 2 3 4 5 6 7 8 9 10 11 12 13 14 15 16 17 18 19 20 21
186
FTUS41 KILN 220540
TAFDAY
TAF
KDAY 220540Z 2206/2306 16008KT P6SM OVC030
      TEMPO 2206/2207 -RA OVC015
     FM220900 18009KT P6SM BKN090 WS020/21040KT
     FM221600 18014G24KT P6SM VCSH BKN070 WS020/20050KT
     FM221900 18014G24KT 4SM -SHRA BR OVC020
     FM230300 20012KT P6SM VCSH SCT015 BKN030 OVC060=

USA.gov is the U.S. government's official web portal to all federal, state and local government web resources and services.